Joselito — CUHF9 — position and weather

sailwx.info

Track history (hours):
 
Tides and Currents Weather Stations Pressure Air Temp Water Temp Dewpoint Dewpoint Depression Visibility Wind Speed Wind Dir Waves Ship Positions

Joselito

Last reported at 2018-Jan-11 03:12 UTC. Time now 2018-Jan-20 19:20 UTC.
Position N 38°29' W 009°16'.
Warning: this ship's position is 9 days out of date.

Length 14 m.

Type: Fishing. MMSI: 263402280.

Date/timePositionNaut miles runAvg speedWind from/ knotsBaromVisibWave heightAir tempDewpointWater temp
2018-Jan-11 03:12N 38°29' W 009°16'1 4.6
2018-Jan-11 03:01N 38°29' W 009°15'2 3.9
2018-Jan-11 02:30N 38°30' W 009°17'3 6.3
2018-Jan-11 01:59N 38°31' W 009°21'3 6.3
2018-Jan-11 01:30N 38°31' W 009°25'3 6.2
2018-Jan-11 01:01N 38°32' W 009°29'10 0.6
2018-Jan-10 08:27N 38°30' W 009°16'0 0.7
2018-Jan-10 07:58N 38°30' W 009°16'0 0.7
2018-Jan-10 07:28N 38°30' W 009°17'0 0.7
2018-Jan-10 06:59N 38°30' W 009°17'0 0.7
2018-Jan-10 06:30N 38°29' W 009°17'1 2.0
2018-Jan-10 05:59N 38°30' W 009°16'2 0.1
2018-Jan-09 10:21N 38°32' W 009°16'2 6.5
2018-Jan-09 10:00N 38°32' W 009°19'7 1.0
2018-Jan-09 02:54N 38°29' W 009°27'1 2.4
2018-Jan-09 02:28N 38°29' W 009°26'2 2.7
2018-Jan-09 01:51N 38°30' W 009°24'1 2.8
2018-Jan-09 01:31N 38°30' W 009°23'1 3.0
2018-Jan-09 01:01N 38°31' W 009°21'2 3.2
2018-Jan-09 00:31N 38°32' W 009°20'2 3.2
2018-Jan-08 23:59N 38°32' W 009°17'  
2018-Jan-06 11:31N 38°26' W 009°07'0 6.7
2018-Jan-06 11:30N 38°26' W 009°07'  
2018-Jan-03 00:41N 38°29' W 009°30'0 1.7
2018-Jan-03 00:30N 38°29' W 009°29'3 6.5
2018-Jan-03 00:00N 38°29' W 009°25'3 6.5
2018-Jan-02 23:29N 38°30' W 009°21'5 1.2
2018-Jan-02 18:47N 38°25' W 009°17'1 4.6
2018-Jan-02 18:29N 38°24' W 009°17'  
Track history (hours):
 
Tides and Currents Weather Stations Pressure Air Temp Water Temp Dewpoint Dewpoint Depression Visibility Wind Speed Wind Dir Waves Ship Positions

Joselito

Last reported at 2018-Jan-11 03:12 UTC. Time now 2018-Jan-20 19:20 UTC.
Position N 38°29' W 009°16'.
Warning: this ship's position is 9 days out of date.

Length 14 m.

Type: Fishing. MMSI: 263402280.

Date/timePositionNaut miles runAvg speedWind from/ knotsBaromVisibWave heightAir tempDewpointWater temp
2018-Jan-11 03:12N 38°29' W 009°16'1 4.6
2018-Jan-11 03:01N 38°29' W 009°15'2 3.9
2018-Jan-11 02:30N 38°30' W 009°17'3 6.3
2018-Jan-11 01:59N 38°31' W 009°21'3 6.3
2018-Jan-11 01:30N 38°31' W 009°25'3 6.2
2018-Jan-11 01:01N 38°32' W 009°29'10 0.6
2018-Jan-10 08:27N 38°30' W 009°16'0 0.7
2018-Jan-10 07:58N 38°30' W 009°16'0 0.7
2018-Jan-10 07:28N 38°30' W 009°17'0 0.7
2018-Jan-10 06:59N 38°30' W 009°17'0 0.7
2018-Jan-10 06:30N 38°29' W 009°17'1 2.0
2018-Jan-10 05:59N 38°30' W 009°16'2 0.1
2018-Jan-09 10:21N 38°32' W 009°16'2 6.5
2018-Jan-09 10:00N 38°32' W 009°19'7 1.0
2018-Jan-09 02:54N 38°29' W 009°27'1 2.4
2018-Jan-09 02:28N 38°29' W 009°26'2 2.7
2018-Jan-09 01:51N 38°30' W 009°24'1 2.8
2018-Jan-09 01:31N 38°30' W 009°23'1 3.0
2018-Jan-09 01:01N 38°31' W 009°21'2 3.2
2018-Jan-09 00:31N 38°32' W 009°20'2 3.2
2018-Jan-08 23:59N 38°32' W 009°17'  
2018-Jan-06 11:31N 38°26' W 009°07'0 6.7
2018-Jan-06 11:30N 38°26' W 009°07'  
2018-Jan-03 00:41N 38°29' W 009°30'0 1.7
2018-Jan-03 00:30N 38°29' W 009°29'3 6.5
2018-Jan-03 00:00N 38°29' W 009°25'3 6.5
2018-Jan-02 23:29N 38°30' W 009°21'5 1.2
2018-Jan-02 18:47N 38°25' W 009°17'1 4.6
2018-Jan-02 18:29N 38°24' W 009°17'  

Dump ship's entire track history